sensor_id;sensor_type;location;lat;lon;timestamp;P1;durP1;ratioP1;P2;durP2;ratioP2
64653;SDS011;51065;48.884;12.598;2024-01-15T00:02:04;26.45;;;11.38;;
64653;SDS011;51065;48.884;12.598;2024-01-15T00:04:31;29.27;;;11.05;;
64653;SDS011;51065;48.884;12.598;2024-01-15T00:07:01;27.15;;;10.45;;
64653;SDS011;51065;48.884;12.598;2024-01-15T00:09:26;24.35;;;10.15;;
64653;SDS011;51065;48.884;12.598;2024-01-15T00:11:52;26.70;;;8.80;;
64653;SDS011;51065;48.884;12.598;2024-01-15T00:14:21;26.52;;;10.60;;
64653;SDS011;51065;48.884;12.598;2024-01-15T00:16:47;31.17;;;11.57;;
64653;SDS011;51065;48.884;12.598;2024-01-15T00:19:15;26.80;;;10.75;;
64653;SDS011;51065;48.884;12.598;2024-01-15T00:21:41;22.25;;;9.05;;
64653;SDS011;51065;48.884;12.598;2024-01-15T00:24:06;23.17;;;9.63;;
64653;SDS011;51065;48.884;12.598;2024-01-15T00:26:32;22.73;;;10.15;;
64653;SDS011;51065;48.884;12.598;2024-01-15T00:28:57;27.23;;;8.82;;
64653;SDS011;51065;48.884;12.598;2024-01-15T00:31:23;26.05;;;10.30;;
64653;SDS011;51065;48.884;12.598;2024-01-15T00:33:49;27.70;;;8.73;;
64653;SDS011;51065;48.884;12.598;2024-01-15T00:36:14;27.65;;;10.30;;
64653;SDS011;51065;48.884;12.598;2024-01-15T00:38:41;22.70;;;9.52;;
64653;SDS011;51065;48.884;12.598;2024-01-15T00:41:07;26.00;;;8.70;;
64653;SDS011;51065;48.884;12.598;2024-01-15T00:43:33;22.92;;;8.23;;
64653;SDS011;51065;48.884;12.598;2024-01-15T00:46:01;27.02;;;10.63;;
64653;SDS011;51065;48.884;12.598;2024-01-15T00:48:27;22.95;;;8.65;;
64653;SDS011;51065;48.884;12.598;2024-01-15T00:50:53;23.88;;;9.52;;
64653;SDS011;51065;48.884;12.598;2024-01-15T00:53:19;21.40;;;8.45;;
64653;SDS011;51065;48.884;12.598;2024-01-15T00:55:47;22.48;;;8.60;;
64653;SDS011;51065;48.884;12.598;2024-01-15T00:58:13;23.63;;;9.43;;
64653;SDS011;51065;48.884;12.598;2024-01-15T01:00:38;21.90;;;7.93;;
64653;SDS011;51065;48.884;12.598;2024-01-15T01:03:04;26.77;;;9.55;;
64653;SDS011;51065;48.884;12.598;2024-01-15T01:05:29;23.92;;;9.77;;
64653;SDS011;51065;48.884;12.598;2024-01-15T01:07:55;23.67;;;9.35;;
64653;SDS011;51065;48.884;12.598;2024-01-15T01:10:20;24.80;;;10.10;;
64653;SDS011;51065;48.884;12.598;2024-01-15T01:12:46;20.40;;;8.90;;
64653;SDS011;51065;48.884;12.598;2024-01-15T01:15:12;22.92;;;9.40;;
64653;SDS011;51065;48.884;12.598;2024-01-15T01:17:37;27.02;;;12.27;;
64653;SDS011;51065;48.884;12.598;2024-01-15T01:20:03;21.17;;;9.48;;
64653;SDS011;51065;48.884;12.598;2024-01-15T01:22:31;22.92;;;9.52;;
64653;SDS011;51065;48.884;12.598;2024-01-15T01:24:56;22.63;;;9.75;;
64653;SDS011;51065;48.884;12.598;2024-01-15T01:27:22;25.13;;;9.52;;
64653;SDS011;51065;48.884;12.598;2024-01-15T01:29:47;19.95;;;9.43;;
64653;SDS011;51065;48.884;12.598;2024-01-15T01:32:13;24.98;;;9.30;;
64653;SDS011;51065;48.884;12.598;2024-01-15T01:34:41;22.17;;;9.38;;
64653;SDS011;51065;48.884;12.598;2024-01-15T01:37:07;24.92;;;10.48;;
64653;SDS011;51065;48.884;12.598;2024-01-15T01:39:33;22.65;;;9.75;;
64653;SDS011;51065;48.884;12.598;2024-01-15T01:41:59;22.25;;;9.90;;
64653;SDS011;51065;48.884;12.598;2024-01-15T01:44:25;24.65;;;9.43;;
64653;SDS011;51065;48.884;12.598;2024-01-15T01:46:50;24.60;;;9.45;;
64653;SDS011;51065;48.884;12.598;2024-01-15T01:49:16;24.27;;;9.88;;
64653;SDS011;51065;48.884;12.598;2024-01-15T01:51:42;19.95;;;9.07;;
64653;SDS011;51065;48.884;12.598;2024-01-15T01:54:11;22.50;;;9.02;;
64653;SDS011;51065;48.884;12.598;2024-01-15T01:56:39;19.38;;;8.82;;
64653;SDS011;51065;48.884;12.598;2024-01-15T01:59:06;21.92;;;9.48;;
64653;SDS011;51065;48.884;12.598;2024-01-15T02:01:34;24.42;;;8.65;;
64653;SDS011;51065;48.884;12.598;2024-01-15T02:04:00;21.63;;;8.98;;
64653;SDS011;51065;48.884;12.598;2024-01-15T02:06:26;22.13;;;8.65;;
64653;SDS011;51065;48.884;12.598;2024-01-15T02:08:52;23.90;;;9.82;;
64653;SDS011;51065;48.884;12.598;2024-01-15T02:11:18;26.35;;;9.77;;
64653;SDS011;51065;48.884;12.598;2024-01-15T02:13:44;26.13;;;9.57;;
64653;SDS011;51065;48.884;12.598;2024-01-15T02:16:09;23.52;;;8.88;;
64653;SDS011;51065;48.884;12.598;2024-01-15T02:18:41;20.10;;;7.95;;
64653;SDS011;51065;48.884;12.598;2024-01-15T02:21:08;16.80;;;6.85;;
64653;SDS011;51065;48.884;12.598;2024-01-15T02:23:34;20.20;;;8.57;;
64653;SDS011;51065;48.884;12.598;2024-01-15T02:25:59;23.65;;;9.48;;
64653;SDS011;51065;48.884;12.598;2024-01-15T02:28:26;24.02;;;10.57;;
64653;SDS011;51065;48.884;12.598;2024-01-15T02:30:52;24.17;;;8.95;;
64653;SDS011;51065;48.884;12.598;2024-01-15T02:33:17;20.15;;;8.23;;
64653;SDS011;51065;48.884;12.598;2024-01-15T02:35:43;18.90;;;7.47;;
64653;SDS011;51065;48.884;12.598;2024-01-15T02:38:08;18.83;;;7.05;;
64653;SDS011;51065;48.884;12.598;2024-01-15T02:40:35;21.02;;;8.10;;
64653;SDS011;51065;48.884;12.598;2024-01-15T02:43:00;19.80;;;8.30;;
64653;SDS011;51065;48.884;12.598;2024-01-15T02:45:26;24.13;;;8.90;;
64653;SDS011;51065;48.884;12.598;2024-01-15T02:47:52;20.70;;;7.53;;
64653;SDS011;51065;48.884;12.598;2024-01-15T02:50:18;24.27;;;8.85;;
64653;SDS011;51065;48.884;12.598;2024-01-15T02:52:43;19.25;;;7.40;;
64653;SDS011;51065;48.884;12.598;2024-01-15T02:55:09;20.88;;;8.80;;
64653;SDS011;51065;48.884;12.598;2024-01-15T02:57:34;22.63;;;8.88;;
64653;SDS011;51065;48.884;12.598;2024-01-15T03:00:00;22.23;;;8.20;;
64653;SDS011;51065;48.884;12.598;2024-01-15T03:02:26;20.60;;;7.32;;
64653;SDS011;51065;48.884;12.598;2024-01-15T03:04:52;21.17;;;8.43;;
64653;SDS011;51065;48.884;12.598;2024-01-15T03:07:17;25.00;;;8.85;;
64653;SDS011;51065;48.884;12.598;2024-01-15T03:09:43;23.13;;;8.52;;
64653;SDS011;51065;48.884;12.598;2024-01-15T03:12:09;19.92;;;7.68;;
64653;SDS011;51065;48.884;12.598;2024-01-15T03:14:35;18.00;;;7.43;;
64653;SDS011;51065;48.884;12.598;2024-01-15T03:17:00;20.15;;;7.45;;
64653;SDS011;51065;48.884;12.598;2024-01-15T03:19:26;24.25;;;9.25;;
64653;SDS011;51065;48.884;12.598;2024-01-15T03:21:52;21.92;;;6.53;;
64653;SDS011;51065;48.884;12.598;2024-01-15T03:24:18;21.48;;;7.10;;
64653;SDS011;51065;48.884;12.598;2024-01-15T03:26:43;23.77;;;8.98;;
64653;SDS011;51065;48.884;12.598;2024-01-15T03:29:09;18.60;;;6.80;;
64653;SDS011;51065;48.884;12.598;2024-01-15T03:31:34;20.65;;;6.63;;
64653;SDS011;51065;48.884;12.598;2024-01-15T03:34:00;19.45;;;6.75;;
64653;SDS011;51065;48.884;12.598;2024-01-15T03:36:25;19.83;;;7.43;;
64653;SDS011;51065;48.884;12.598;2024-01-15T03:38:51;19.27;;;6.90;;
64653;SDS011;51065;48.884;12.598;2024-01-15T03:41:17;19.90;;;7.38;;
64653;SDS011;51065;48.884;12.598;2024-01-15T03:43:45;21.35;;;6.63;;
64653;SDS011;51065;48.884;12.598;2024-01-15T03:46:11;16.75;;;5.72;;
64653;SDS011;51065;48.884;12.598;2024-01-15T03:48:37;16.45;;;5.90;;
64653;SDS011;51065;48.884;12.598;2024-01-15T03:51:03;18.33;;;6.97;;
64653;SDS011;51065;48.884;12.598;2024-01-15T03:53:29;15.50;;;5.65;;
64653;SDS011;51065;48.884;12.598;2024-01-15T03:55:54;20.50;;;7.38;;
64653;SDS011;51065;48.884;12.598;2024-01-15T03:58:20;18.02;;;6.78;;
64653;SDS011;51065;48.884;12.598;2024-01-15T04:00:45;19.60;;;6.20;;
64653;SDS011;51065;48.884;12.598;2024-01-15T04:03:11;14.80;;;5.55;;
64653;SDS011;51065;48.884;12.598;2024-01-15T04:05:37;16.67;;;5.47;;
64653;SDS011;51065;48.884;12.598;2024-01-15T04:08:03;18.98;;;5.60;;
64653;SDS011;51065;48.884;12.598;2024-01-15T04:10:29;18.52;;;6.22;;
64653;SDS011;51065;48.884;12.598;2024-01-15T04:12:54;16.30;;;5.47;;
64653;SDS011;51065;48.884;12.598;2024-01-15T04:15:20;18.30;;;5.85;;
64653;SDS011;51065;48.884;12.598;2024-01-15T04:17:46;23.02;;;5.95;;
64653;SDS011;51065;48.884;12.598;2024-01-15T04:20:11;18.30;;;5.90;;
64653;SDS011;51065;48.884;12.598;2024-01-15T04:22:37;13.63;;;4.85;;
64653;SDS011;51065;48.884;12.598;2024-01-15T04:25:03;14.90;;;5.88;;
64653;SDS011;51065;48.884;12.598;2024-01-15T04:27:29;17.60;;;6.13;;
64653;SDS011;51065;48.884;12.598;2024-01-15T04:29:54;13.85;;;4.63;;
64653;SDS011;51065;48.884;12.598;2024-01-15T04:32:20;17.70;;;6.38;;
64653;SDS011;51065;48.884;12.598;2024-01-15T04:34:45;16.48;;;5.32;;
64653;SDS011;51065;48.884;12.598;2024-01-15T04:37:11;15.95;;;5.78;;
64653;SDS011;51065;48.884;12.598;2024-01-15T04:39:38;13.45;;;5.05;;
64653;SDS011;51065;48.884;12.598;2024-01-15T04:42:06;18.20;;;5.03;;
64653;SDS011;51065;48.884;12.598;2024-01-15T04:44:32;13.93;;;4.18;;
64653;SDS011;51065;48.884;12.598;2024-01-15T04:46:58;17.70;;;5.18;;
64653;SDS011;51065;48.884;12.598;2024-01-15T04:49:23;16.83;;;6.05;;
64653;SDS011;51065;48.884;12.598;2024-01-15T04:51:52;17.88;;;5.82;;
64653;SDS011;51065;48.884;12.598;2024-01-15T04:54:17;16.75;;;6.45;;
64653;SDS011;51065;48.884;12.598;2024-01-15T04:56:43;18.08;;;5.13;;
64653;SDS011;51065;48.884;12.598;2024-01-15T04:59:09;16.50;;;5.45;;
64653;SDS011;51065;48.884;12.598;2024-01-15T05:01:35;12.38;;;4.65;;
64653;SDS011;51065;48.884;12.598;2024-01-15T05:04:01;16.42;;;6.50;;
64653;SDS011;51065;48.884;12.598;2024-01-15T05:06:26;15.95;;;5.13;;
64653;SDS011;51065;48.884;12.598;2024-01-15T05:08:52;13.98;;;4.95;;
64653;SDS011;51065;48.884;12.598;2024-01-15T05:11:18;14.52;;;4.90;;
64653;SDS011;51065;48.884;12.598;2024-01-15T05:13:43;16.27;;;5.68;;
64653;SDS011;51065;48.884;12.598;2024-01-15T05:16:09;17.38;;;5.45;;
64653;SDS011;51065;48.884;12.598;2024-01-15T05:18:34;15.18;;;5.45;;
64653;SDS011;51065;48.884;12.598;2024-01-15T05:21:03;16.80;;;5.32;;
64653;SDS011;51065;48.884;12.598;2024-01-15T05:23:30;15.98;;;5.10;;
64653;SDS011;51065;48.884;12.598;2024-01-15T05:25:56;15.45;;;5.05;;
64653;SDS011;51065;48.884;12.598;2024-01-15T05:28:22;16.67;;;6.05;;
64653;SDS011;51065;48.884;12.598;2024-01-15T05:30:47;19.38;;;5.82;;
64653;SDS011;51065;48.884;12.598;2024-01-15T05:33:13;13.40;;;5.35;;
64653;SDS011;51065;48.884;12.598;2024-01-15T05:35:39;15.63;;;5.32;;
64653;SDS011;51065;48.884;12.598;2024-01-15T05:38:04;16.52;;;5.63;;
64653;SDS011;51065;48.884;12.598;2024-01-15T05:40:30;16.05;;;5.10;;
64653;SDS011;51065;48.884;12.598;2024-01-15T05:42:56;17.15;;;6.00;;
64653;SDS011;51065;48.884;12.598;2024-01-15T05:45:21;16.73;;;5.00;;
64653;SDS011;51065;48.884;12.598;2024-01-15T05:47:47;18.45;;;5.93;;
64653;SDS011;51065;48.884;12.598;2024-01-15T05:50:12;18.55;;;6.50;;
64653;SDS011;51065;48.884;12.598;2024-01-15T05:52:38;18.40;;;5.75;;
64653;SDS011;51065;48.884;12.598;2024-01-15T05:55:04;17.20;;;5.75;;
64653;SDS011;51065;48.884;12.598;2024-01-15T05:57:30;17.15;;;5.93;;
64653;SDS011;51065;48.884;12.598;2024-01-15T05:59:55;18.73;;;6.28;;
64653;SDS011;51065;48.884;12.598;2024-01-15T06:02:21;14.65;;;5.43;;
64653;SDS011;51065;48.884;12.598;2024-01-15T06:04:47;16.52;;;6.45;;
64653;SDS011;51065;48.884;12.598;2024-01-15T06:07:12;18.08;;;6.25;;
64653;SDS011;51065;48.884;12.598;2024-01-15T06:09:38;17.08;;;5.55;;
64653;SDS011;51065;48.884;12.598;2024-01-15T06:12:04;19.40;;;5.80;;
64653;SDS011;51065;48.884;12.598;2024-01-15T06:14:30;16.67;;;5.05;;
64653;SDS011;51065;48.884;12.598;2024-01-15T06:16:56;16.48;;;6.45;;
64653;SDS011;51065;48.884;12.598;2024-01-15T06:19:21;15.93;;;4.78;;
64653;SDS011;51065;48.884;12.598;2024-01-15T06:21:47;16.08;;;5.78;;
64653;SDS011;51065;48.884;12.598;2024-01-15T06:24:12;14.82;;;5.70;;
64653;SDS011;51065;48.884;12.598;2024-01-15T06:26:38;17.70;;;5.72;;
64653;SDS011;51065;48.884;12.598;2024-01-15T06:29:04;16.10;;;5.70;;
64653;SDS011;51065;48.884;12.598;2024-01-15T06:31:29;15.02;;;5.50;;
64653;SDS011;51065;48.884;12.598;2024-01-15T06:33:55;18.02;;;5.88;;
64653;SDS011;51065;48.884;12.598;2024-01-15T06:36:21;12.73;;;4.15;;
64653;SDS011;51065;48.884;12.598;2024-01-15T06:38:46;14.18;;;5.35;;
64653;SDS011;51065;48.884;12.598;2024-01-15T06:41:12;15.73;;;5.55;;
64653;SDS011;51065;48.884;12.598;2024-01-15T06:43:38;15.52;;;4.65;;
64653;SDS011;51065;48.884;12.598;2024-01-15T06:46:03;15.77;;;4.97;;
64653;SDS011;51065;48.884;12.598;2024-01-15T06:48:29;17.17;;;5.43;;
64653;SDS011;51065;48.884;12.598;2024-01-15T06:50:54;16.45;;;4.90;;
64653;SDS011;51065;48.884;12.598;2024-01-15T06:53:21;16.60;;;5.65;;
64653;SDS011;51065;48.884;12.598;2024-01-15T06:55:46;14.00;;;4.80;;
64653;SDS011;51065;48.884;12.598;2024-01-15T06:58:12;19.60;;;4.85;;
64653;SDS011;51065;48.884;12.598;2024-01-15T07:00:40;15.23;;;5.22;;
64653;SDS011;51065;48.884;12.598;2024-01-15T07:03:06;18.60;;;6.05;;
64653;SDS011;51065;48.884;12.598;2024-01-15T07:05:32;15.27;;;5.03;;
64653;SDS011;51065;48.884;12.598;2024-01-15T07:07:58;12.88;;;4.82;;
64653;SDS011;51065;48.884;12.598;2024-01-15T07:10:23;18.08;;;5.40;;
64653;SDS011;51065;48.884;12.598;2024-01-15T07:12:49;16.25;;;5.40;;
64653;SDS011;51065;48.884;12.598;2024-01-15T07:15:15;12.48;;;4.93;;
64653;SDS011;51065;48.884;12.598;2024-01-15T07:17:40;15.82;;;4.90;;
64653;SDS011;51065;48.884;12.598;2024-01-15T07:20:07;13.48;;;5.30;;
64653;SDS011;51065;48.884;12.598;2024-01-15T07:22:37;16.58;;;5.00;;
64653;SDS011;51065;48.884;12.598;2024-01-15T07:25:03;14.10;;;4.50;;
64653;SDS011;51065;48.884;12.598;2024-01-15T07:27:30;14.73;;;4.13;;
64653;SDS011;51065;48.884;12.598;2024-01-15T07:29:56;15.98;;;5.35;;
64653;SDS011;51065;48.884;12.598;2024-01-15T07:32:22;16.20;;;5.38;;
64653;SDS011;51065;48.884;12.598;2024-01-15T07:34:49;11.98;;;4.05;;
64653;SDS011;51065;48.884;12.598;2024-01-15T07:37:14;16.42;;;5.00;;
64653;SDS011;51065;48.884;12.598;2024-01-15T07:39:40;14.18;;;4.28;;
64653;SDS011;51065;48.884;12.598;2024-01-15T07:42:06;13.90;;;4.43;;
64653;SDS011;51065;48.884;12.598;2024-01-15T07:44:32;15.77;;;5.80;;
64653;SDS011;51065;48.884;12.598;2024-01-15T07:46:58;15.10;;;4.65;;
64653;SDS011;51065;48.884;12.598;2024-01-15T07:49:23;11.90;;;4.22;;
64653;SDS011;51065;48.884;12.598;2024-01-15T07:51:49;9.10;;;3.60;;
64653;SDS011;51065;48.884;12.598;2024-01-15T07:54:15;13.43;;;3.83;;
64653;SDS011;51065;48.884;12.598;2024-01-15T07:59:26;10.25;;;3.88;;
64653;SDS011;51065;48.884;12.598;2024-01-15T08:01:52;8.35;;;3.60;;
64653;SDS011;51065;48.884;12.598;2024-01-15T08:04:19;8.18;;;3.25;;
64653;SDS011;51065;48.884;12.598;2024-01-15T08:06:45;11.93;;;4.13;;
64653;SDS011;51065;48.884;12.598;2024-01-15T08:09:11;12.45;;;4.03;;
64653;SDS011;51065;48.884;12.598;2024-01-15T08:11:40;8.20;;;2.85;;
64653;SDS011;51065;48.884;12.598;2024-01-15T08:14:07;10.63;;;3.30;;
64653;SDS011;51065;48.884;12.598;2024-01-15T08:16:33;9.40;;;3.05;;
64653;SDS011;51065;48.884;12.598;2024-01-15T08:18:59;10.43;;;2.90;;
64653;SDS011;51065;48.884;12.598;2024-01-15T08:21:24;12.35;;;3.85;;
64653;SDS011;51065;48.884;12.598;2024-01-15T08:23:50;11.95;;;3.22;;
64653;SDS011;51065;48.884;12.598;2024-01-15T08:26:16;10.57;;;3.35;;
64653;SDS011;51065;48.884;12.598;2024-01-15T08:28:41;11.10;;;3.20;;
64653;SDS011;51065;48.884;12.598;2024-01-15T08:31:07;10.43;;;3.60;;
64653;SDS011;51065;48.884;12.598;2024-01-15T08:33:32;7.22;;;3.00;;
64653;SDS011;51065;48.884;12.598;2024-01-15T08:35:58;11.15;;;3.65;;
64653;SDS011;51065;48.884;12.598;2024-01-15T08:38:23;15.43;;;3.80;;
64653;SDS011;51065;48.884;12.598;2024-01-15T08:40:50;8.57;;;2.83;;
64653;SDS011;51065;48.884;12.598;2024-01-15T08:43:16;10.18;;;3.38;;
64653;SDS011;51065;48.884;12.598;2024-01-15T08:45:41;5.93;;;2.65;;
64653;SDS011;51065;48.884;12.598;2024-01-15T08:48:07;8.75;;;2.45;;
64653;SDS011;51065;48.884;12.598;2024-01-15T08:50:33;12.27;;;3.53;;
64653;SDS011;51065;48.884;12.598;2024-01-15T08:52:58;5.25;;;2.00;;
64653;SDS011;51065;48.884;12.598;2024-01-15T08:55:24;10.18;;;3.08;;
64653;SDS011;51065;48.884;12.598;2024-01-15T08:57:50;13.23;;;3.90;;
64653;SDS011;51065;48.884;12.598;2024-01-15T09:00:16;12.90;;;3.22;;
64653;SDS011;51065;48.884;12.598;2024-01-15T09:02:42;9.63;;;3.35;;
64653;SDS011;51065;48.884;12.598;2024-01-15T09:05:08;6.07;;;2.55;;
64653;SDS011;51065;48.884;12.598;2024-01-15T09:07:33;7.50;;;2.95;;
64653;SDS011;51065;48.884;12.598;2024-01-15T09:09:59;4.70;;;2.35;;
64653;SDS011;51065;48.884;12.598;2024-01-15T09:12:25;9.35;;;2.60;;
64653;SDS011;51065;48.884;12.598;2024-01-15T09:14:51;6.93;;;2.85;;
64653;SDS011;51065;48.884;12.598;2024-01-15T09:17:17;7.90;;;2.72;;
64653;SDS011;51065;48.884;12.598;2024-01-15T09:19:42;8.88;;;2.70;;
64653;SDS011;51065;48.884;12.598;2024-01-15T09:22:09;7.95;;;3.13;;
64653;SDS011;51065;48.884;12.598;2024-01-15T09:24:34;9.95;;;3.22;;
64653;SDS011;51065;48.884;12.598;2024-01-15T09:27:00;10.68;;;2.90;;
64653;SDS011;51065;48.884;12.598;2024-01-15T09:29:26;7.88;;;2.80;;
64653;SDS011;51065;48.884;12.598;2024-01-15T09:31:51;9.05;;;2.95;;
64653;SDS011;51065;48.884;12.598;2024-01-15T09:34:17;8.80;;;2.70;;
64653;SDS011;51065;48.884;12.598;2024-01-15T09:36:43;7.28;;;2.88;;
64653;SDS011;51065;48.884;12.598;2024-01-15T09:39:09;8.00;;;2.47;;
64653;SDS011;51065;48.884;12.598;2024-01-15T09:41:36;7.03;;;2.67;;
64653;SDS011;51065;48.884;12.598;2024-01-15T09:44:05;6.53;;;2.58;;
64653;SDS011;51065;48.884;12.598;2024-01-15T09:46:33;9.77;;;3.33;;
64653;SDS011;51065;48.884;12.598;2024-01-15T09:48:59;7.18;;;2.80;;
64653;SDS011;51065;48.884;12.598;2024-01-15T09:51:26;9.15;;;2.80;;
64653;SDS011;51065;48.884;12.598;2024-01-15T09:53:56;6.25;;;2.47;;
64653;SDS011;51065;48.884;12.598;2024-01-15T09:56:23;9.25;;;2.95;;
64653;SDS011;51065;48.884;12.598;2024-01-15T09:58:48;9.20;;;3.42;;
64653;SDS011;51065;48.884;12.598;2024-01-15T10:01:16;7.38;;;3.13;;
64653;SDS011;51065;48.884;12.598;2024-01-15T10:03:42;6.57;;;1.90;;
64653;SDS011;51065;48.884;12.598;2024-01-15T10:06:08;8.20;;;2.40;;
64653;SDS011;51065;48.884;12.598;2024-01-15T10:08:36;5.15;;;2.78;;
64653;SDS011;51065;48.884;12.598;2024-01-15T10:11:02;6.72;;;2.75;;
64653;SDS011;51065;48.884;12.598;2024-01-15T10:13:30;5.78;;;2.38;;
64653;SDS011;51065;48.884;12.598;2024-01-15T10:15:56;7.45;;;2.92;;
64653;SDS011;51065;48.884;12.598;2024-01-15T10:18:23;6.57;;;2.60;;
64653;SDS011;51065;48.884;12.598;2024-01-15T10:20:48;5.78;;;2.20;;
64653;SDS011;51065;48.884;12.598;2024-01-15T10:23:14;7.45;;;2.40;;
64653;SDS011;51065;48.884;12.598;2024-01-15T10:25:41;7.15;;;2.58;;
64653;SDS011;51065;48.884;12.598;2024-01-15T10:28:07;5.50;;;2.10;;
64653;SDS011;51065;48.884;12.598;2024-01-15T10:30:34;5.80;;;2.13;;
64653;SDS011;51065;48.884;12.598;2024-01-15T10:33:03;5.82;;;2.28;;
64653;SDS011;51065;48.884;12.598;2024-01-15T10:35:30;9.63;;;2.60;;
64653;SDS011;51065;48.884;12.598;2024-01-15T10:37:57;4.95;;;2.58;;
64653;SDS011;51065;48.884;12.598;2024-01-15T10:40:23;6.72;;;2.58;;
64653;SDS011;51065;48.884;12.598;2024-01-15T10:42:49;11.07;;;3.17;;
64653;SDS011;51065;48.884;12.598;2024-01-15T10:45:15;6.80;;;2.35;;
64653;SDS011;51065;48.884;12.598;2024-01-15T10:47:41;4.50;;;1.92;;
64653;SDS011;51065;48.884;12.598;2024-01-15T10:50:08;7.25;;;2.58;;
64653;SDS011;51065;48.884;12.598;2024-01-15T10:52:38;4.50;;;2.05;;
64653;SDS011;51065;48.884;12.598;2024-01-15T10:55:06;4.50;;;2.08;;
64653;SDS011;51065;48.884;12.598;2024-01-15T10:57:36;8.03;;;2.67;;
64653;SDS011;51065;48.884;12.598;2024-01-15T11:00:03;5.43;;;2.15;;
64653;SDS011;51065;48.884;12.598;2024-01-15T11:02:31;8.02;;;2.78;;
64653;SDS011;51065;48.884;12.598;2024-01-15T11:04:59;7.47;;;2.13;;
64653;SDS011;51065;48.884;12.598;2024-01-15T11:07:25;8.90;;;3.00;;
64653;SDS011;51065;48.884;12.598;2024-01-15T11:09:51;8.73;;;3.08;;
64653;SDS011;51065;48.884;12.598;2024-01-15T11:12:17;6.72;;;2.70;;
64653;SDS011;51065;48.884;12.598;2024-01-15T11:14:48;6.95;;;2.47;;
64653;SDS011;51065;48.884;12.598;2024-01-15T11:17:15;4.05;;;1.83;;
64653;SDS011;51065;48.884;12.598;2024-01-15T11:22:09;5.95;;;2.28;;
64653;SDS011;51065;48.884;12.598;2024-01-15T11:24:37;4.93;;;1.92;;
64653;SDS011;51065;48.884;12.598;2024-01-15T11:27:06;4.75;;;2.40;;
64653;SDS011;51065;48.884;12.598;2024-01-15T11:29:35;5.93;;;2.15;;
64653;SDS011;51065;48.884;12.598;2024-01-15T11:37:16;4.25;;;1.70;;
64653;SDS011;51065;48.884;12.598;2024-01-15T11:39:43;6.68;;;2.58;;
64653;SDS011;51065;48.884;12.598;2024-01-15T11:42:09;7.38;;;2.28;;
64653;SDS011;51065;48.884;12.598;2024-01-15T11:44:37;6.38;;;2.58;;
64653;SDS011;51065;48.884;12.598;2024-01-15T11:47:04;5.85;;;2.53;;
64653;SDS011;51065;48.884;12.598;2024-01-15T11:52:33;3.85;;;2.10;;
64653;SDS011;51065;48.884;12.598;2024-01-15T11:55:14;4.15;;;2.60;;
64653;SDS011;51065;48.884;12.598;2024-01-15T12:00:20;7.63;;;2.88;;
64653;SDS011;51065;48.884;12.598;2024-01-15T12:02:46;5.90;;;2.17;;
64653;SDS011;51065;48.884;12.598;2024-01-15T12:05:14;6.15;;;2.30;;
64653;SDS011;51065;48.884;12.598;2024-01-15T12:07:45;5.60;;;2.40;;
64653;SDS011;51065;48.884;12.598;2024-01-15T12:10:19;4.95;;;1.75;;
64653;SDS011;51065;48.884;12.598;2024-01-15T12:12:59;5.60;;;2.33;;
64653;SDS011;51065;48.884;12.598;2024-01-15T12:15:31;4.78;;;1.63;;
64653;SDS011;51065;48.884;12.598;2024-01-15T12:17:58;5.60;;;2.00;;
64653;SDS011;51065;48.884;12.598;2024-01-15T12:20:29;7.40;;;2.13;;
64653;SDS011;51065;48.884;12.598;2024-01-15T12:22:55;8.98;;;2.40;;
64653;SDS011;51065;48.884;12.598;2024-01-15T12:25:21;4.70;;;1.73;;
64653;SDS011;51065;48.884;12.598;2024-01-15T12:27:48;5.68;;;2.33;;
64653;SDS011;51065;48.884;12.598;2024-01-15T12:30:17;5.40;;;2.08;;
64653;SDS011;51065;48.884;12.598;2024-01-15T12:32:43;6.38;;;2.38;;
64653;SDS011;51065;48.884;12.598;2024-01-15T12:35:12;5.03;;;2.28;;
64653;SDS011;51065;48.884;12.598;2024-01-15T12:37:39;6.25;;;2.55;;
64653;SDS011;51065;48.884;12.598;2024-01-15T12:40:06;7.63;;;2.88;;
64653;SDS011;51065;48.884;12.598;2024-01-15T12:42:35;4.70;;;1.95;;
64653;SDS011;51065;48.884;12.598;2024-01-15T12:45:01;6.32;;;2.00;;
64653;SDS011;51065;48.884;12.598;2024-01-15T12:47:30;6.35;;;2.72;;
64653;SDS011;51065;48.884;12.598;2024-01-15T12:49:57;5.13;;;2.28;;
64653;SDS011;51065;48.884;12.598;2024-01-15T12:52:26;6.68;;;2.03;;
64653;SDS011;51065;48.884;12.598;2024-01-15T12:54:52;7.18;;;2.72;;
64653;SDS011;51065;48.884;12.598;2024-01-15T12:57:18;6.03;;;2.22;;
64653;SDS011;51065;48.884;12.598;2024-01-15T12:59:44;6.78;;;2.45;;
64653;SDS011;51065;48.884;12.598;2024-01-15T13:02:10;4.25;;;1.83;;
64653;SDS011;51065;48.884;12.598;2024-01-15T13:04:39;5.78;;;2.25;;
64653;SDS011;51065;48.884;12.598;2024-01-15T13:07:08;5.95;;;2.28;;
64653;SDS011;51065;48.884;12.598;2024-01-15T13:09:34;4.57;;;2.13;;
64653;SDS011;51065;48.884;12.598;2024-01-15T13:12:01;5.32;;;2.15;;
64653;SDS011;51065;48.884;12.598;2024-01-15T13:14:27;5.97;;;2.00;;
64653;SDS011;51065;48.884;12.598;2024-01-15T13:16:53;6.15;;;1.88;;
64653;SDS011;51065;48.884;12.598;2024-01-15T13:19:22;4.35;;;1.92;;
64653;SDS011;51065;48.884;12.598;2024-01-15T13:21:48;6.07;;;2.15;;
64653;SDS011;51065;48.884;12.598;2024-01-15T13:24:15;4.95;;;1.85;;
64653;SDS011;51065;48.884;12.598;2024-01-15T13:26:40;4.88;;;2.10;;
64653;SDS011;51065;48.884;12.598;2024-01-15T13:29:06;5.53;;;1.92;;
64653;SDS011;51065;48.884;12.598;2024-01-15T13:31:32;4.68;;;2.03;;
64653;SDS011;51065;48.884;12.598;2024-01-15T13:33:58;4.15;;;1.80;;
64653;SDS011;51065;48.884;12.598;2024-01-15T13:36:27;6.00;;;2.40;;
64653;SDS011;51065;48.884;12.598;2024-01-15T13:38:53;3.42;;;1.48;;
64653;SDS011;51065;48.884;12.598;2024-01-15T13:41:19;7.88;;;2.22;;
64653;SDS011;51065;48.884;12.598;2024-01-15T13:43:52;5.18;;;2.45;;
64653;SDS011;51065;48.884;12.598;2024-01-15T13:46:23;5.53;;;2.35;;
64653;SDS011;51065;48.884;12.598;2024-01-15T13:48:51;3.10;;;1.42;;
64653;SDS011;51065;48.884;12.598;2024-01-15T13:51:17;5.53;;;2.17;;
64653;SDS011;51065;48.884;12.598;2024-01-15T13:53:42;4.88;;;1.92;;
64653;SDS011;51065;48.884;12.598;2024-01-15T13:56:08;3.50;;;1.50;;
64653;SDS011;51065;48.884;12.598;2024-01-15T13:58:35;6.75;;;2.17;;
64653;SDS011;51065;48.884;12.598;2024-01-15T14:01:01;6.63;;;2.40;;
64653;SDS011;51065;48.884;12.598;2024-01-15T14:03:29;6.22;;;2.20;;
64653;SDS011;51065;48.884;12.598;2024-01-15T14:05:54;4.00;;;2.20;;
64653;SDS011;51065;48.884;12.598;2024-01-15T14:08:20;5.63;;;2.60;;
64653;SDS011;51065;48.884;12.598;2024-01-15T14:10:45;5.10;;;2.13;;
64653;SDS011;51065;48.884;12.598;2024-01-15T14:13:11;5.75;;;2.35;;
64653;SDS011;51065;48.884;12.598;2024-01-15T14:15:37;5.68;;;2.17;;
64653;SDS011;51065;48.884;12.598;2024-01-15T14:18:03;3.22;;;1.98;;
64653;SDS011;51065;48.884;12.598;2024-01-15T14:20:28;3.85;;;1.38;;
64653;SDS011;51065;48.884;12.598;2024-01-15T14:22:54;6.15;;;2.30;;
64653;SDS011;51065;48.884;12.598;2024-01-15T14:25:20;6.18;;;2.28;;
64653;SDS011;51065;48.884;12.598;2024-01-15T14:27:46;6.07;;;2.40;;
64653;SDS011;51065;48.884;12.598;2024-01-15T14:30:12;9.30;;;2.47;;
64653;SDS011;51065;48.884;12.598;2024-01-15T14:32:39;4.78;;;2.05;;
64653;SDS011;51065;48.884;12.598;2024-01-15T14:35:05;5.65;;;2.00;;
64653;SDS011;51065;48.884;12.598;2024-01-15T14:37:33;6.38;;;1.92;;